Arlington, OH

2:02 AM EST on March 04, 2015 (GMT -0500)
KOHARLIN2 | Change Station
CLOSE
Current Station
Personal Weather Station
Location: ARLINGTON, OH
Elevation: 850 ft
Nearby Weather Stations

Elev 850 ft 40.87 °N, 83.66 °W | Updated 10 seconds ago

Overcast
Overcast
34.3 °F
Feels Like 34 °F
N
2.0
Wind Variable Wind from WSW
Gusts 3.0 mph

Today
High -- | Low -- °F
--% Chance of Precip.
Yesterday
High -- | Low -- °F
Precip. -- in
7:04 AM 6:28 PM
Waxing Gibbous, 98% visible
Pressure 29.84 in
Visibility 8.0 miles
Clouds Overcast 1400 ft
Windchill 34 °F
Dew Point 31 °F
Humidity 86%
Rainfall 0.00 in
Snow Depth Not available.
UV 0 out of 12
Pollen .40 out of 12
Air Quality Not available.
Flu Activity Not available.
METAR KFDY 040653Z AUTO 26010KT 8SM OVC014 02/M01 A2982 RMK AO2 SLP103 T00171006

More Conditions Fewer Conditions

Pressure 29.84 in
Visibility 8.0 miles
Clouds Overcast 1400 ft
Windchill 34 °F
Dew Point 31 °F
Humidity 86%
Rainfall 0.00 in
Snow Depth Not available.
UV 0 out of 12
Pollen .40 out of 12
Air Quality Not available.
Flu Activity Not available.
METAR KFDY 040653Z AUTO 26010KT 8SM OVC014 02/M01 A2982 RMK AO2 SLP103 T00171006

More Conditions Fewer Conditions

10-Day Weather Forecast

Almanac

Astronomy

Mar. 04, 2015 Rise Set
Actual Time
Civil Twilight
Nautical Twilight
Astronomical Twilight
Moon
Length of Visible Light
Length of Day
Tomorrow will be .
, % of the Moon is Illuminated

Today's Extremes

State Highs State Lows

Community

WunderPhotos

Upload Photos

1,802,402 photos uploaded!

WunderBlogs® & News

Nearby

Air Quality

  Air Quality AQ Index Pollutant
Not available.

Snow Depth

Station Depth Elevation

Earthquake Activity

City Distance Mag. Time & Date
Minimum magnitude displayed is 2.5.

Coastal Water Temperatures

Place Temperature

Nearby Weather Stations